Time;durP1;ratioP1;P1;durP2;ratioP2;P2;SDS_P1;SDS_P2;PMS_P1;PMS_P2;Temp;Humidity;BMP_temperature;BMP_pressure;BME280_temperature;BME280_humidity;BME280_pressure;Samples;Min_cycle;Max_cycle;Signal;HPM_P1;HPM_P2
2022/08/08 00:02:28;;;;;;;2.60;1.48;;;19.90;95.80;;;;;;5075666;28;20083;-78
2022/08/08 00:05:25;;;;;;;1.08;1.08;;;19.90;95.90;;;;;;5075203;28;20051;-77
2022/08/08 00:08:00;;;;;;;;;;;19.90;96.10;;;;;;5075661;28;20020;-77
2022/08/08 00:10:38;;;;;;;1.60;1.20;;;19.90;96.20;;;;;;5057258;28;20387;-76
2022/08/08 00:13:09;;;;;;;2.20;0.80;;;19.90;96.20;;;;;;5057289;28;20383;-79
2022/08/08 00:15:39;;;;;;;1.20;1.10;;;19.90;96.00;;;;;;5057131;28;20024;-77
2022/08/08 00:18:17;;;;;;;1.52;1.33;;;19.90;95.90;;;;;;5074388;28;20529;-76
2022/08/08 00:20:53;;;;;;;0.82;0.70;;;19.80;95.60;;;;;;5057298;28;20068;-79
2022/08/08 00:23:38;;;;;;;1.08;1.02;;;19.80;95.60;;;;;;5075448;28;20047;-78
2022/08/08 00:26:07;;;;;;;2.10;1.53;;;19.90;95.70;;;;;;5074921;28;20131;-76
2022/08/08 00:28:39;;;;;;;1.02;1.00;;;19.90;95.80;;;;;;5056997;28;20281;-78
2022/08/08 00:31:14;;;;;;;1.00;1.00;;;19.90;95.80;;;;;;5074732;28;20095;-77
2022/08/08 00:35:09;;;;;;;1.75;1.02;;;19.80;95.90;;;;;;5075011;28;20028;-78
2022/08/08 00:36:50;;;;;;;0.90;0.90;;;19.80;96.10;;;;;;5058974;28;20028;-78
2022/08/08 00:39:21;;;;;;;0.80;0.80;;;19.80;96.20;;;;;;5074530;28;20028;-77
2022/08/08 00:42:18;;;;;;;1.42;0.95;;;19.70;96.00;;;;;;5074483;28;20348;-79
2022/08/08 00:44:56;;;;;;;0.80;0.80;;;19.70;96.00;;;;;;5073805;28;20029;-78
2022/08/08 00:48:08;;;;;;;1.25;1.15;;;19.60;96.10;;;;;;5074617;28;20095;-76
2022/08/08 00:51:06;;;;;;;1.17;1.08;;;19.60;96.20;;;;;;5056654;28;20024;-78
2022/08/08 00:53:41;;;;;;;1.25;0.85;;;19.70;96.70;;;;;;5072759;28;20451;-76
2022/08/08 00:56:40;;;;;;;1.40;0.97;;;19.70;96.40;;;;;;5074216;28;20407;-77
2022/08/08 00:59:43;;;;;;;0.75;0.75;;;19.70;96.70;;;;;;5055755;28;20037;-77
2022/08/08 01:02:30;;;;;;;1.05;0.93;;;19.80;96.50;;;;;;5056392;28;20117;-78
2022/08/08 01:05:09;;;;;;;1.00;1.00;;;19.80;96.40;;;;;;5056184;28;20025;-78
2022/08/08 01:08:01;;;;;;;1.17;1.08;;;19.80;96.60;;;;;;5074195;28;20817;-77
2022/08/08 01:10:33;;;;;;;2.13;1.20;;;19.80;96.80;;;;;;5073857;28;20028;-78
2022/08/08 01:13:26;;;;;;;1.05;1.00;;;19.90;97.10;;;;;;5055472;28;20111;-77
2022/08/08 01:16:45;;;;;;;0.95;0.95;;;19.90;97.10;;;;;;5074225;28;20424;-78
2022/08/08 01:19:34;;;;;;;0.90;0.90;;;19.90;97.50;;;;;;5055770;28;20135;-77
2022/08/08 01:22:03;;;;;;;0.70;0.70;;;19.80;97.30;;;;;;5055890;28;20052;-78
2022/08/08 01:24:48;;;;;;;1.05;0.95;;;19.80;97.00;;;;;;5074091;28;20031;-77
2022/08/08 01:27:14;;;;;;;1.42;1.20;;;19.80;97.20;;;;;;5073677;28;20028;-79
2022/08/08 01:29:51;;;;;;;0.80;0.80;;;19.70;97.80;;;;;;5055637;28;20073;-77
2022/08/08 01:32:35;;;;;;;1.67;0.80;;;19.70;98.00;;;;;;5055662;28;20017;-77
2022/08/08 01:35:09;;;;;;;1.45;1.05;;;19.60;98.00;;;;;;5055820;28;20463;-76
2022/08/08 01:38:06;;;;;;;1.00;1.00;;;19.50;98.60;;;;;;5055573;28;20033;-77
2022/08/08 01:40:56;;;;;;;8.73;1.23;;;19.50;99.60;;;;;;5073883;28;20219;-78
2022/08/08 01:43:48;;;;;;;0.98;0.98;;;19.50;99.90;;;;;;5055305;28;20105;-78
2022/08/08 01:46:55;;;;;;;1.70;1.20;;;19.60;99.90;;;;;;5055538;28;20028;-78
2022/08/08 01:49:39;;;;;;;;;;;19.50;99.90;;;;;;5021445;28;20028;-77
2022/08/08 01:52:25;;;;;;;1.08;1.05;;;19.60;99.90;;;;;;5055289;28;19904;-78
2022/08/08 01:54:55;;;;;;;0.85;0.85;;;19.50;99.90;;;;;;5055485;28;20112;-78
2022/08/08 01:57:41;;;;;;;1.40;1.30;;;19.50;99.90;;;;;;5072978;28;20036;-78
2022/08/08 02:00:21;;;;;;;1.52;1.27;;;19.50;99.90;;;;;;5073161;28;20074;-77
2022/08/08 02:03:02;;;;;;;1.50;1.40;;;19.50;99.90;;;;;;5073106;28;20386;-78
2022/08/08 02:05:38;;;;;;;1.17;1.08;;;19.50;99.90;;;;;;5054873;28;20020;-78
2022/08/08 02:08:20;;;;;;;1.05;1.05;;;19.40;99.90;;;;;;5072960;28;20082;-80
2022/08/08 02:11:07;;;;;;;1.38;1.23;;;19.40;99.90;;;;;;5072125;28;20112;-78
2022/08/08 02:14:07;;;;;;;1.08;1.00;;;19.30;99.90;;;;;;5072842;28;20046;-79
2022/08/08 02:17:11;;;;;;;1.50;1.38;;;19.20;99.90;;;;;;5033945;28;20468;-78
2022/08/08 02:19:54;;;;;;;1.35;1.08;;;19.20;99.90;;;;;;5021747;28;20060;-77
2022/08/08 02:22:32;;;;;;;1.50;1.00;;;19.10;99.90;;;;;;5072624;28;20110;-75
2022/08/08 02:25:32;;;;;;;1.40;1.30;;;19.10;99.90;;;;;;5072458;28;20025;-74
2022/08/08 02:28:01;;;;;;;1.50;1.40;;;19.20;99.90;;;;;;5054255;28;20024;-77
2022/08/08 02:31:02;;;;;;;1.15;1.08;;;19.20;99.90;;;;;;5054611;28;20107;-78
2022/08/08 02:34:05;;;;;;;2.22;1.00;;;19.20;99.90;;;;;;5072550;28;20490;-74
2022/08/08 02:36:50;;;;;;;0.80;0.80;;;19.20;99.90;;;;;;5072546;28;20029;-77
2022/08/08 02:39:24;;;;;;;1.58;1.48;;;19.20;99.90;;;;;;5072290;28;20032;-77
2022/08/08 02:41:57;;;;;;;1.47;1.37;;;19.20;99.90;;;;;;5054286;28;20809;-76
2022/08/08 02:44:28;;;;;;;1.33;1.13;;;19.20;99.90;;;;;;5054409;28;20261;-78
2022/08/08 02:47:18;;;;;;;2.67;1.20;;;19.20;99.90;;;;;;5072216;28;20044;-77
2022/08/08 02:50:14;;;;;;;1.48;1.38;;;19.20;99.90;;;;;;5054403;28;20337;-78
2022/08/08 02:53:06;;;;;;;;;;;19.20;99.90;;;;;;5072740;28;20085;-77
2022/08/08 02:55:50;;;;;;;1.50;1.40;;;19.20;99.90;;;;;;5072263;28;19908;-78
2022/08/08 02:58:41;;;;;;;1.13;1.00;;;19.10;99.90;;;;;;5072022;28;20034;-76
2022/08/08 03:01:27;;;;;;;2.55;1.38;;;19.10;99.90;;;;;;5072005;28;20019;-77
2022/08/08 03:04:08;;;;;;;;;;;19.10;99.90;;;;;;5054509;28;20182;-78
2022/08/08 03:07:03;;;;;;;3.15;1.75;;;19.10;99.90;;;;;;5072394;28;19901;-79
2022/08/08 03:10:07;;;;;;;1.08;1.08;;;19.00;99.90;;;;;;5050109;28;20553;-77
2022/08/08 03:12:41;;;;;;;2.53;1.40;;;19.00;99.90;;;;;;5020590;28;20044;-78
2022/08/08 03:15:24;;;;;;;1.38;1.27;;;19.00;99.90;;;;;;5072057;28;20483;-77
2022/08/08 03:18:26;;;;;;;2.35;1.42;;;18.90;99.90;;;;;;5071609;28;20468;-77
2022/08/08 03:20:52;;;;;;;1.95;1.20;;;18.90;99.90;;;;;;5053964;28;20526;-75
2022/08/08 03:23:19;;;;;;;1.48;1.38;;;18.80;99.90;;;;;;5060200;28;20075;-77
2022/08/08 03:25:46;;;;;;;2.83;1.48;;;18.80;99.90;;;;;;5060419;28;20509;-76
2022/08/08 03:28:20;;;;;;;1.38;1.20;;;18.80;99.90;;;;;;5078602;28;20032;-77
2022/08/08 03:30:47;;;;;;;2.67;1.63;;;18.80;99.90;;;;;;5078566;28;20040;-78
2022/08/08 03:33:18;;;;;;;2.15;1.98;;;18.70;99.90;;;;;;5078187;28;20040;-78
2022/08/08 03:35:47;;;;;;;1.40;1.30;;;18.60;99.90;;;;;;5078510;28;20085;-77
2022/08/08 03:38:14;;;;;;;3.33;1.38;;;18.60;99.90;;;;;;5059969;28;20050;-79
2022/08/08 03:40:39;;;;;;;1.25;1.17;;;18.60;99.90;;;;;;5078074;28;20081;-77
2022/08/08 03:43:11;;;;;;;1.67;1.55;;;18.50;99.90;;;;;;5060049;28;20017;-78
2022/08/08 03:45:37;;;;;;;2.28;1.58;;;18.50;99.90;;;;;;5078449;28;20043;-78
2022/08/08 03:48:08;;;;;;;1.60;1.50;;;18.50;99.90;;;;;;5078356;28;20470;-78
2022/08/08 03:50:35;;;;;;;2.08;1.88;;;18.40;99.90;;;;;;5078498;28;20020;-79
2022/08/08 03:53:16;;;;;;;1.73;1.60;;;18.40;99.90;;;;;;5078085;28;20058;-78
2022/08/08 03:55:44;;;;;;;2.63;1.25;;;18.40;99.90;;;;;;5078547;28;20059;-77
2022/08/08 03:58:16;;;;;;;2.30;1.63;;;18.40;99.90;;;;;;5078496;28;20040;-76
2022/08/08 04:00:55;;;;;;;1.98;1.52;;;18.40;99.90;;;;;;5078596;28;20345;-77
2022/08/08 04:03:22;;;;;;;1.45;1.35;;;18.40;99.90;;;;;;5080049;28;20035;-78
2022/08/08 04:05:48;;;;;;;2.90;1.42;;;18.40;99.90;;;;;;5079975;28;20044;-78
2022/08/08 04:08:20;;;;;;;2.35;1.50;;;19.00;99.90;;;;;;5062519;28;20025;-78
2022/08/08 04:10:48;;;;;;;1.42;1.33;;;19.50;99.90;;;;;;5062391;28;20155;-78
2022/08/08 04:13:15;;;;;;;3.92;2.00;;;19.90;99.90;;;;;;5062678;28;20021;-79
2022/08/08 04:15:41;;;;;;;2.00;1.80;;;20.10;99.90;;;;;;5065387;28;20098;-78
2022/08/08 04:18:06;;;;;;;3.55;1.88;;;20.30;99.90;;;;;;5065145;28;20033;-78
2022/08/08 04:20:32;;;;;;;2.88;1.92;;;20.60;99.90;;;;;;5078862;28;20055;-79
2022/08/08 04:22:58;;;;;;;1.80;1.45;;;20.80;99.90;;;;;;5079446;28;20384;-76
2022/08/08 04:25:23;;;;;;;1.55;1.25;;;20.80;99.90;;;;;;5061889;28;20020;-76
2022/08/08 04:27:49;;;;;;;1.30;1.20;;;20.80;99.90;;;;;;5080056;28;20021;-75
2022/08/08 04:30:15;;;;;;;2.67;1.35;;;20.90;99.90;;;;;;5079783;28;20056;-76
2022/08/08 04:32:41;;;;;;;2.00;1.33;;;21.00;99.90;;;;;;5060617;28;20032;-76
2022/08/08 04:35:07;;;;;;;1.52;1.27;;;21.10;99.90;;;;;;5057539;28;20054;-76
2022/08/08 04:37:33;;;;;;;1.40;1.30;;;21.00;99.90;;;;;;5076934;28;20033;-76
2022/08/08 04:39:59;;;;;;;4.38;1.25;;;20.90;99.90;;;;;;5058972;28;20023;-77
2022/08/08 04:42:25;;;;;;;1.85;1.40;;;20.90;99.90;;;;;;5058901;28;20025;-76
2022/08/08 04:44:54;;;;;;;1.42;1.33;;;20.70;99.90;;;;;;5058730;28;20432;-76
2022/08/08 04:47:20;;;;;;;1.42;1.30;;;20.70;99.90;;;;;;5058747;28;20029;-76
2022/08/08 04:49:46;;;;;;;5.18;1.58;;;20.70;99.90;;;;;;5076675;28;20591;-78
2022/08/08 04:52:12;;;;;;;3.20;2.88;;;20.70;99.90;;;;;;5058658;28;20070;-77
2022/08/08 04:54:37;;;;;;;3.05;2.75;;;20.80;99.90;;;;;;5058418;28;20395;-76
2022/08/08 04:57:03;;;;;;;3.42;2.50;;;20.80;99.90;;;;;;5058137;28;20023;-76
2022/08/08 04:59:29;;;;;;;3.95;1.73;;;20.80;99.90;;;;;;5058616;28;20028;-77
2022/08/08 05:01:55;;;;;;;2.95;1.50;;;20.70;99.90;;;;;;5076613;28;20106;-77
2022/08/08 05:04:20;;;;;;;6.32;1.73;;;20.70;99.90;;;;;;5058287;28;20070;-77
2022/08/08 05:06:47;;;;;;;2.17;1.83;;;20.80;99.90;;;;;;5058247;28;20104;-77
2022/08/08 05:09:13;;;;;;;1.48;1.38;;;20.80;99.90;;;;;;5058370;28;20070;-77
2022/08/08 05:11:39;;;;;;;1.35;1.25;;;20.90;99.90;;;;;;5058327;28;20028;-77
2022/08/08 05:14:04;;;;;;;1.40;1.30;;;21.00;99.90;;;;;;5058409;28;20020;-78
2022/08/08 05:16:31;;;;;;;3.38;1.67;;;21.00;99.40;;;;;;5057669;28;20035;-77
2022/08/08 05:18:56;;;;;;;3.10;1.73;;;21.00;99.40;;;;;;5058088;28;20490;-78
2022/08/08 05:21:22;;;;;;;5.13;3.15;;;21.00;98.70;;;;;;5058654;28;20064;-77
2022/08/08 05:23:48;;;;;;;1.60;1.50;;;21.10;97.80;;;;;;5058568;28;20430;-77
2022/08/08 05:26:13;;;;;;;2.08;1.17;;;21.30;96.40;;;;;;5058071;28;20025;-77
2022/08/08 05:28:39;;;;;;;3.42;2.58;;;21.30;95.10;;;;;;5057924;28;20033;-77
2022/08/08 05:31:05;;;;;;;2.28;2.13;;;21.30;94.50;;;;;;5075999;28;20024;-76
2022/08/08 05:33:31;;;;;;;2.85;1.20;;;21.30;93.50;;;;;;5058020;28;20025;-78
2022/08/08 05:36:00;;;;;;;1.17;1.08;;;21.10;93.30;;;;;;5075549;28;20482;-77
2022/08/08 05:38:28;;;;;;;3.45;1.08;;;21.10;93.70;;;;;;5057951;28;20131;-78
2022/08/08 05:40:56;;;;;;;1.85;1.02;;;21.00;94.20;;;;;;5057959;28;20062;-76
2022/08/08 05:43:30;;;;;;;0.82;0.82;;;21.10;93.90;;;;;;5075563;28;20024;-77
2022/08/08 05:46:02;;;;;;;1.83;1.13;;;21.20;94.00;;;;;;5057240;28;20040;-77
2022/08/08 05:48:28;;;;;;;1.60;1.10;;;21.30;94.70;;;;;;5075184;28;20040;-77
2022/08/08 05:50:53;;;;;;;4.95;1.30;;;21.30;94.90;;;;;;5057738;28;20021;-78
2022/08/08 05:53:24;;;;;;;0.82;0.82;;;21.20;95.70;;;;;;5058191;28;20039;-78
2022/08/08 05:55:55;;;;;;;1.60;1.50;;;21.20;96.60;;;;;;5057335;28;20050;-78
2022/08/08 05:58:31;;;;;;;4.03;1.05;;;21.10;97.10;;;;;;5057609;28;20547;-78
2022/08/08 06:00:59;;;;;;;2.13;1.40;;;21.00;97.30;;;;;;5056708;28;20058;-77
2022/08/08 06:03:26;;;;;;;1.35;1.25;;;21.00;97.70;;;;;;5055914;28;20070;-78
2022/08/08 06:05:57;;;;;;;3.60;1.23;;;21.10;97.10;;;;;;5056048;28;20107;-75
2022/08/08 06:08:29;;;;;;;4.70;1.63;;;20.90;96.60;;;;;;5055266;28;20009;-78
2022/08/08 06:10:57;;;;;;;1.10;1.00;;;21.00;96.30;;;;;;5073170;28;20024;-79
2022/08/08 06:13:24;;;;;;;1.20;1.10;;;21.10;95.20;;;;;;5073583;28;20091;-79
2022/08/08 06:15:54;;;;;;;2.67;0.80;;;21.20;94.10;;;;;;5076848;28;20550;-78
2022/08/08 06:18:22;;;;;;;1.40;0.90;;;21.20;93.30;;;;;;5072105;28;20498;-80
2022/08/08 06:20:54;;;;;;;1.33;1.00;;;21.20;92.70;;;;;;5092525;28;20087;-80
2022/08/08 06:23:23;;;;;;;1.73;1.02;;;21.20;92.20;;;;;;5094037;28;20055;-77
2022/08/08 06:26:02;;;;;;;0.65;0.60;;;21.20;91.10;;;;;;5093395;28;20020;-80
2022/08/08 06:29:01;;;;;;;0.93;0.93;;;21.20;91.00;;;;;;5075354;28;20257;-77
2022/08/08 06:31:32;;;;;;;0.70;0.70;;;21.30;91.30;;;;;;5072838;28;20425;-78
2022/08/08 06:34:17;;;;;;;0.70;0.70;;;21.30;90.30;;;;;;5075326;28;20050;-80
2022/08/08 06:36:45;;;;;;;4.63;1.13;;;21.40;90.00;;;;;;5093059;28;20058;-78
2022/08/08 06:39:13;;;;;;;0.75;0.70;;;21.40;89.90;;;;;;5075238;28;20036;-79
2022/08/08 06:41:57;;;;;;;0.95;0.70;;;21.50;89.40;;;;;;5075181;28;20024;-79
2022/08/08 06:44:24;;;;;;;4.28;0.65;;;21.40;88.30;;;;;;5093088;28;20016;-79
2022/08/08 06:46:51;;;;;;;0.68;0.47;;;21.50;88.00;;;;;;5074746;28;20023;-79
2022/08/08 06:49:17;;;;;;;4.03;0.57;;;21.60;86.30;;;;;;5074892;28;20016;-77
2022/08/08 06:51:44;;;;;;;3.30;1.05;;;21.70;86.20;;;;;;5093146;28;20031;-80
2022/08/08 06:54:10;;;;;;;2.38;0.65;;;21.80;85.30;;;;;;5074877;28;20016;-78
2022/08/08 06:56:36;;;;;;;2.97;1.00;;;21.90;84.40;;;;;;5074126;28;20119;-79
2022/08/08 06:59:02;;;;;;;1.75;0.90;;;22.10;84.50;;;;;;5074746;28;20043;-80
2022/08/08 07:01:29;;;;;;;0.82;0.60;;;;;;;;;;5074965;28;20020;-79
2022/08/08 07:03:59;;;;;;;0.82;0.65;;;22.20;84.70;;;;;;5092989;28;20490;-79
2022/08/08 07:06:29;;;;;;;5.78;0.98;;;22.30;84.20;;;;;;5092698;28;20020;-78
2022/08/08 07:09:06;;;;;;;1.77;0.70;;;22.40;84.70;;;;;;5074418;28;20036;-79
2022/08/08 07:11:38;;;;;;;0.95;0.95;;;22.30;85.20;;;;;;5092508;28;20103;-79
2022/08/08 07:14:06;;;;;;;3.63;0.77;;;22.40;85.10;;;;;;5075166;28;20020;-79
2022/08/08 07:16:43;;;;;;;2.83;0.93;;;22.40;84.90;;;;;;5093234;28;20026;-78
2022/08/08 07:19:11;;;;;;;1.65;0.80;;;22.50;86.10;;;;;;5068463;28;20056;-76
2022/08/08 07:21:59;;;;;;;1.10;1.00;;;22.50;84.70;;;;;;5062382;28;20022;-78
2022/08/08 07:24:33;;;;;;;1.45;0.95;;;22.50;83.30;;;;;;5088190;28;20031;-80
2022/08/08 07:26:59;;;;;;;0.40;0.40;;;22.40;83.30;;;;;;5072045;28;20029;-78
2022/08/08 07:29:25;;;;;;;1.55;0.70;;;22.50;84.10;;;;;;5072381;28;20025;-78
2022/08/08 07:31:51;;;;;;;1.10;0.60;;;22.50;84.70;;;;;;5072313;28;20032;-76
2022/08/08 07:34:18;;;;;;;0.70;0.70;;;22.50;83.80;;;;;;5072008;28;20020;-78
2022/08/08 07:36:47;;;;;;;2.28;0.82;;;22.50;84.20;;;;;;5071977;28;20028;-76
2022/08/08 07:39:16;;;;;;;1.17;0.55;;;22.50;84.60;;;;;;5072038;28;20089;-78
2022/08/08 07:41:44;;;;;;;1.30;0.77;;;22.60;84.00;;;;;;5072012;28;20031;-80
2022/08/08 07:44:10;;;;;;;0.70;0.70;;;22.70;83.70;;;;;;5071765;28;20379;-78
2022/08/08 07:46:36;;;;;;;2.17;0.70;;;22.80;82.60;;;;;;5072108;28;20017;-78
2022/08/08 07:49:02;;;;;;;0.98;0.60;;;22.80;81.50;;;;;;5071317;28;20529;-77
2022/08/08 07:51:29;;;;;;;0.50;0.50;;;22.80;79.40;;;;;;5072599;28;20355;-78
2022/08/08 07:54:20;;;;;;;0.82;0.82;;;22.90;77.90;;;;;;5072077;28;20044;-79
2022/08/08 07:57:15;;;;;;;2.72;0.90;;;22.90;77.70;;;;;;5072287;28;20021;-77
2022/08/08 08:00:05;;;;;;;1.83;0.70;;;23.00;78.40;;;;;;5071414;28;20514;-79
2022/08/08 08:02:38;;;;;;;1.45;0.60;;;23.00;71.60;;;;;;5071889;28;20479;-79
2022/08/08 08:05:11;;;;;;;2.08;0.50;;;23.10;68.10;;;;;;5071960;28;20020;-75
2022/08/08 08:07:40;;;;;;;2.88;0.57;;;23.20;68.30;;;;;;5071683;28;20052;-78
2022/08/08 08:10:09;;;;;;;2.15;0.60;;;23.10;65.90;;;;;;5075346;28;20364;-77
2022/08/08 08:12:41;;;;;;;9.18;0.57;;;23.00;64.40;;;;;;5076251;28;20013;-78
2022/08/08 08:15:07;;;;;;;1.08;0.40;;;22.90;65.40;;;;;;5075711;28;20075;-80
2022/08/08 08:17:41;;;;;;;3.40;0.30;;;22.80;66.10;;;;;;5075718;28;20025;-80
2022/08/08 08:20:09;;;;;;;0.40;0.25;;;22.90;65.00;;;;;;5089376;28;20483;-78
2022/08/08 08:22:35;;;;;;;0.90;0.30;;;22.80;64.20;;;;;;5095931;28;20024;-80
2022/08/08 08:25:01;;;;;;;1.02;0.30;;;22.70;65.20;;;;;;5095990;28;20101;-78
2022/08/08 08:27:26;;;;;;;1.25;0.70;;;22.70;65.70;;;;;;5095925;28;20028;-79
2022/08/08 08:29:52;;;;;;;3.00;0.52;;;22.90;65.90;;;;;;5077782;28;20031;-79
2022/08/08 08:32:18;;;;;;;3.08;0.38;;;22.90;65.40;;;;;;5077914;28;20028;-77
2022/08/08 08:34:44;;;;;;;0.17;0.17;;;23.10;65.80;;;;;;5095962;28;20490;-76
2022/08/08 08:37:09;;;;;;;0.50;0.30;;;23.20;65.20;;;;;;5077368;28;20024;-78
2022/08/08 08:39:36;;;;;;;0.65;0.40;;;23.30;65.00;;;;;;5077680;28;20055;-78
2022/08/08 08:42:02;;;;;;;0.80;0.50;;;23.00;64.30;;;;;;5077243;28;20020;-79
2022/08/08 08:44:28;;;;;;;0.80;0.68;;;22.90;65.80;;;;;;5095109;28;20031;-79
2022/08/08 08:46:55;;;;;;;1.75;0.80;;;22.80;65.90;;;;;;5095917;28;20016;-78
2022/08/08 08:49:21;;;;;;;0.52;0.40;;;22.80;66.40;;;;;;5095459;28;20020;-78
2022/08/08 08:51:49;;;;;;;0.45;0.45;;;22.70;66.90;;;;;;5077348;28;20467;-78
2022/08/08 08:54:20;;;;;;;0.40;0.40;;;22.80;68.30;;;;;;5094972;28;20118;-77
2022/08/08 08:56:46;;;;;;;0.47;0.40;;;22.70;68.70;;;;;;5076364;28;20028;-78
2022/08/08 08:59:12;;;;;;;1.52;1.15;;;22.80;68.40;;;;;;5077143;28;20043;-79
2022/08/08 09:01:42;;;;;;;3.22;0.90;;;22.80;68.50;;;;;;5095396;28;20097;-78
2022/08/08 09:04:12;;;;;;;0.38;0.38;;;22.90;68.30;;;;;;5095530;28;20024;-77
2022/08/08 09:06:41;;;;;;;0.30;0.30;;;23.00;69.00;;;;;;5094310;28;20031;-77
2022/08/08 09:09:08;;;;;;;1.38;0.65;;;23.00;69.00;;;;;;5094884;28;20405;-78
2022/08/08 09:11:35;;;;;;;0.50;0.50;;;23.10;68.60;;;;;;5094807;28;20081;-80
2022/08/08 09:14:01;;;;;;;1.65;0.60;;;23.20;67.80;;;;;;5094870;28;20074;-80
2022/08/08 09:16:29;;;;;;;2.50;0.80;;;23.20;67.80;;;;;;5094986;28;20043;-78
2022/08/08 09:18:56;;;;;;;3.22;0.70;;;23.10;68.30;;;;;;5094377;28;20044;-78
2022/08/08 09:21:23;;;;;;;0.55;0.45;;;23.00;67.80;;;;;;5094983;28;20027;-77
2022/08/08 09:23:50;;;;;;;0.40;0.40;;;23.00;68.50;;;;;;5076987;28;20457;-77
2022/08/08 09:26:28;;;;;;;0.73;0.50;;;22.90;68.10;;;;;;5076491;28;20024;-76
2022/08/08 09:28:59;;;;;;;0.25;0.25;;;22.90;68.20;;;;;;5076411;28;20077;-78
2022/08/08 09:31:50;;;;;;;0.45;0.40;;;23.00;68.20;;;;;;5076477;28;20024;-81
2022/08/08 09:34:18;;;;;;;0.52;0.30;;;23.10;68.80;;;;;;5094658;28;20031;-78
2022/08/08 09:36:45;;;;;;;0.82;0.47;;;23.30;69.20;;;;;;5076359;28;20119;-77
2022/08/08 09:39:14;;;;;;;1.80;0.50;;;23.50;69.60;;;;;;5075732;28;20044;-80
2022/08/08 09:41:41;;;;;;;0.35;0.30;;;23.60;69.10;;;;;;5094638;28;20478;-79
2022/08/08 09:44:20;;;;;;;0.60;0.20;;;23.60;68.90;;;;;;5076291;28;20058;-80
2022/08/08 09:46:50;;;;;;;3.08;0.70;;;23.50;69.00;;;;;;5076118;28;20115;-79
2022/08/08 09:49:19;;;;;;;1.00;0.50;;;23.40;68.60;;;;;;5082393;28;20020;-78
2022/08/08 09:51:52;;;;;;;0.30;0.30;;;23.40;68.70;;;;;;5073264;28;20186;-78
2022/08/08 09:54:28;;;;;;;1.55;0.50;;;23.40;68.90;;;;;;5074232;28;20016;-77
2022/08/08 09:56:54;;;;;;;0.75;0.40;;;23.60;68.70;;;;;;5073607;28;20111;-75
2022/08/08 09:59:25;;;;;;;0.60;0.50;;;23.70;68.30;;;;;;5073476;28;20033;-78
2022/08/08 10:01:52;;;;;;;0.17;0.17;;;23.90;68.80;;;;;;5073418;28;20032;-76
2022/08/08 10:04:21;;;;;;;1.33;0.40;;;24.10;68.00;;;;;;5073671;28;20020;-74
2022/08/08 10:06:47;;;;;;;0.95;0.82;;;24.30;67.80;;;;;;5054933;28;20059;-76
2022/08/08 10:09:13;;;;;;;0.70;0.45;;;24.50;67.40;;;;;;5073389;28;20063;-77
2022/08/08 10:11:46;;;;;;;0.50;0.38;;;24.50;67.20;;;;;;5073667;28;20548;-74
2022/08/08 10:14:12;;;;;;;1.00;0.80;;;24.10;67.10;;;;;;5076972;28;20024;-75
2022/08/08 10:16:40;;;;;;;1.58;0.65;;;24.10;67.30;;;;;;5083113;28;20020;-75
2022/08/08 10:19:08;;;;;;;1.10;0.38;;;24.10;67.80;;;;;;5085596;28;20048;-77
2022/08/08 10:21:35;;;;;;;0.32;0.28;;;24.20;67.40;;;;;;5071650;28;20483;-76
2022/08/08 10:24:09;;;;;;;0.65;0.35;;;24.20;67.00;;;;;;5092787;28;20137;-77
2022/08/08 10:26:46;;;;;;;0.65;0.43;;;24.40;67.50;;;;;;5072176;28;20024;-77
2022/08/08 10:29:12;;;;;;;1.08;0.45;;;24.70;68.40;;;;;;5092680;28;20472;-76
2022/08/08 10:34:25;;;;;;;1.17;0.55;;;24.90;67.80;;;;;;5093341;28;20439;-75
2022/08/08 10:36:52;;;;;;;2.95;0.93;;;25.00;66.70;;;;;;5093240;28;20016;-77
2022/08/08 10:39:25;;;;;;;1.38;0.50;;;25.20;66.40;;;;;;5092937;28;20035;-76
2022/08/08 10:42:02;;;;;;;0.32;0.32;;;25.20;65.80;;;;;;5074997;28;20035;-76
2022/08/08 10:44:35;;;;;;;0.40;0.20;;;25.10;65.80;;;;;;5093299;28;20080;-76
2022/08/08 10:47:15;;;;;;;0.50;0.50;;;25.00;65.60;;;;;;5093413;28;20153;-76
2022/08/08 10:49:48;;;;;;;0.68;0.40;;;24.70;65.30;;;;;;5092915;28;20023;-77
2022/08/08 10:52:35;;;;;;;0.63;0.60;;;24.70;65.80;;;;;;5093321;28;20012;-78
2022/08/08 10:55:05;;;;;;;1.27;1.17;;;24.90;67.60;;;;;;5093263;28;20103;-79
2022/08/08 10:57:35;;;;;;;0.20;0.20;;;25.00;67.30;;;;;;5092123;28;20388;-79
2022/08/08 11:00:01;;;;;;;0.30;0.30;;;25.10;66.70;;;;;;5089629;28;20028;-78
2022/08/08 11:02:32;;;;;;;0.60;0.50;;;25.10;66.00;;;;;;5091599;28;20391;-77
2022/08/08 11:04:59;;;;;;;0.52;0.45;;;25.10;66.60;;;;;;5092368;28;20400;-78
2022/08/08 11:07:27;;;;;;;0.32;0.32;;;25.00;65.40;;;;;;5091204;28;20065;-79
2022/08/08 11:09:53;;;;;;;0.40;0.40;;;25.00;66.20;;;;;;5089221;28;20027;-78
2022/08/08 11:12:19;;;;;;;0.50;0.50;;;25.10;66.90;;;;;;5091399;28;20070;-79
2022/08/08 11:15:01;;;;;;;0.38;0.38;;;25.30;63.90;;;;;;5091221;28;20024;-79
2022/08/08 11:17:30;;;;;;;0.20;0.20;;;25.40;64.70;;;;;;5089098;28;20027;-78
2022/08/08 11:19:57;;;;;;;0.60;0.40;;;25.30;65.50;;;;;;5062710;28;20395;-78
2022/08/08 11:22:26;;;;;;;3.47;0.57;;;25.30;65.70;;;;;;5072068;28;20029;-77
2022/08/08 11:24:54;;;;;;;1.45;0.43;;;25.20;64.70;;;;;;5072510;28;20016;-78
2022/08/08 11:27:24;;;;;;;0.85;0.40;;;25.10;64.90;;;;;;5072517;28;20043;-77
2022/08/08 11:29:54;;;;;;;0.47;0.25;;;25.30;64.80;;;;;;5072482;28;20054;-77
2022/08/08 11:32:26;;;;;;;2.38;0.70;;;25.40;65.50;;;;;;5072677;28;20025;-75
2022/08/08 11:35:04;;;;;;;1.17;0.40;;;25.20;64.60;;;;;;5071953;28;20021;-78
2022/08/08 11:37:31;;;;;;;0.57;0.30;;;25.30;64.70;;;;;;5072001;28;20029;-78
2022/08/08 11:39:59;;;;;;;0.70;0.70;;;25.30;63.90;;;;;;5072021;28;20495;-78
2022/08/08 11:42:26;;;;;;;0.35;0.35;;;25.30;62.80;;;;;;5072660;28;20078;-76
2022/08/08 11:44:54;;;;;;;0.73;0.52;;;25.20;63.90;;;;;;5057985;28;20021;-77
2022/08/08 11:47:21;;;;;;;0.38;0.38;;;25.30;63.70;;;;;;5058232;28;20029;-77
2022/08/08 11:49:49;;;;;;;0.50;0.50;;;25.30;62.20;;;;;;5058438;28;20412;-78
2022/08/08 11:52:15;;;;;;;0.75;0.30;;;25.20;63.10;;;;;;5076425;28;20025;-78
2022/08/08 11:54:44;;;;;;;0.45;0.38;;;25.30;64.30;;;;;;5076703;28;20435;-78
2022/08/08 11:57:12;;;;;;;0.85;0.38;;;25.60;64.00;;;;;;5058239;28;20024;-79
2022/08/08 11:59:47;;;;;;;0.32;0.32;;;25.70;62.60;;;;;;5058019;28;20033;-77
2022/08/08 12:02:13;;;;;;;0.40;0.38;;;25.50;63.20;;;;;;5075952;28;20024;-78
2022/08/08 12:04:39;;;;;;;0.63;0.47;;;25.30;64.40;;;;;;5075523;28;20029;-77
2022/08/08 12:07:06;;;;;;;0.73;0.40;;;25.30;64.20;;;;;;5075668;28;20035;-78
2022/08/08 12:09:32;;;;;;;0.52;0.50;;;25.60;65.10;;;;;;5075742;28;20494;-79
2022/08/08 12:11:58;;;;;;;0.75;0.63;;;25.80;65.60;;;;;;5075645;28;20038;-76
2022/08/08 12:14:25;;;;;;;0.57;0.38;;;25.80;64.40;;;;;;5057810;28;20024;-79
2022/08/08 12:16:52;;;;;;;0.75;0.75;;;25.70;64.70;;;;;;5057804;28;20454;-77
2022/08/08 12:19:19;;;;;;;0.28;0.28;;;25.80;64.20;;;;;;5060110;28;20045;-77
2022/08/08 12:21:45;;;;;;;0.68;0.35;;;26.00;64.40;;;;;;5074131;28;20028;-77
2022/08/08 12:24:14;;;;;;;1.35;0.30;;;25.90;64.10;;;;;;5075942;28;20029;-77
2022/08/08 12:26:47;;;;;;;0.40;0.40;;;25.90;64.40;;;;;;5075134;28;20017;-76
2022/08/08 12:29:31;;;;;;;0.38;0.38;;;26.00;64.70;;;;;;5075288;28;20024;-77
2022/08/08 12:32:13;;;;;;;1.77;0.60;;;26.00;63.00;;;;;;5075611;28;20108;-76
2022/08/08 12:34:51;;;;;;;2.90;0.45;;;25.90;63.30;;;;;;5075945;28;20025;-77
2022/08/08 12:37:22;;;;;;;0.40;0.40;;;25.80;64.00;;;;;;5076112;28;20024;-79
2022/08/08 12:39:48;;;;;;;1.10;0.47;;;25.90;64.40;;;;;;5075733;28;20021;-77
2022/08/08 12:42:14;;;;;;;0.52;0.30;;;25.90;64.10;;;;;;5075206;28;20021;-77
2022/08/08 12:44:41;;;;;;;0.40;0.40;;;25.90;64.70;;;;;;5075357;28;20024;-79
2022/08/08 12:47:08;;;;;;;2.60;0.47;;;26.00;64.50;;;;;;5075761;28;20367;-79
2022/08/08 12:49:36;;;;;;;0.17;0.17;;;25.90;63.90;;;;;;5075087;28;20071;-79
2022/08/08 12:52:03;;;;;;;0.40;0.40;;;25.80;64.20;;;;;;5075122;28;20048;-77
2022/08/08 12:54:32;;;;;;;0.55;0.50;;;25.90;64.10;;;;;;5074411;28;20094;-78
2022/08/08 12:56:58;;;;;;;0.32;0.32;;;25.80;63.80;;;;;;5074923;28;20052;-77
2022/08/08 12:59:28;;;;;;;0.60;0.50;;;25.80;64.20;;;;;;5074418;28;20123;-79
2022/08/08 13:01:59;;;;;;;2.03;0.45;;;25.90;63.80;;;;;;5074808;28;20432;-79
2022/08/08 13:04:32;;;;;;;0.50;0.50;;;25.70;63.60;;;;;;5074581;28;20019;-79
2022/08/08 13:07:08;;;;;;;0.60;0.30;;;25.60;64.10;;;;;;5074592;28;20543;-78
2022/08/08 13:09:36;;;;;;;0.63;0.50;;;25.80;64.50;;;;;;5074590;28;20031;-78
2022/08/08 13:12:11;;;;;;;2.20;1.20;;;25.70;64.20;;;;;;5074694;28;20043;-78
2022/08/08 13:14:48;;;;;;;0.65;0.40;;;25.70;63.80;;;;;;5074542;28;20021;-78
2022/08/08 13:17:15;;;;;;;1.52;0.40;;;25.60;63.30;;;;;;5074546;28;20031;-75
2022/08/08 13:19:42;;;;;;;5.63;0.60;;;25.50;63.50;;;;;;5075733;28;20052;-78
2022/08/08 13:22:08;;;;;;;0.30;0.30;;;25.20;63.40;;;;;;5074694;28;20020;-78